sensor_id;sensor_type;location;lat;lon;timestamp;P1;durP1;ratioP1;P2;durP2;ratioP2
10410;SDS011;5251;52.112;8.606;2024-02-23T00:01:56;3.45;;;0.90;;
10410;SDS011;5251;52.112;8.606;2024-02-23T00:04:22;3.13;;;0.98;;
10410;SDS011;5251;52.112;8.606;2024-02-23T00:06:48;3.42;;;1.10;;
10410;SDS011;5251;52.112;8.606;2024-02-23T00:09:13;3.35;;;0.90;;
10410;SDS011;5251;52.112;8.606;2024-02-23T00:11:39;1.80;;;0.82;;
10410;SDS011;5251;52.112;8.606;2024-02-23T00:14:09;3.17;;;0.90;;
10410;SDS011;5251;52.112;8.606;2024-02-23T00:16:38;1.67;;;0.73;;
10410;SDS011;5251;52.112;8.606;2024-02-23T00:19:05;2.10;;;0.95;;
10410;SDS011;5251;52.112;8.606;2024-02-23T00:21:32;1.70;;;0.80;;
10410;SDS011;5251;52.112;8.606;2024-02-23T00:23:57;3.03;;;0.73;;
10410;SDS011;5251;52.112;8.606;2024-02-23T00:26:23;2.20;;;0.60;;
10410;SDS011;5251;52.112;8.606;2024-02-23T00:28:49;1.50;;;0.80;;
10410;SDS011;5251;52.112;8.606;2024-02-23T00:31:14;2.70;;;0.93;;
10410;SDS011;5251;52.112;8.606;2024-02-23T00:33:40;2.08;;;1.13;;
10410;SDS011;5251;52.112;8.606;2024-02-23T00:36:07;1.40;;;0.73;;
10410;SDS011;5251;52.112;8.606;2024-02-23T00:38:33;1.30;;;0.80;;
10410;SDS011;5251;52.112;8.606;2024-02-23T00:40:58;0.85;;;0.60;;
10410;SDS011;5251;52.112;8.606;2024-02-23T00:43:24;0.88;;;0.52;;
10410;SDS011;5251;52.112;8.606;2024-02-23T00:45:50;0.88;;;0.60;;
10410;SDS011;5251;52.112;8.606;2024-02-23T00:48:15;0.98;;;0.70;;
10410;SDS011;5251;52.112;8.606;2024-02-23T00:50:41;0.90;;;0.80;;
10410;SDS011;5251;52.112;8.606;2024-02-23T00:53:06;0.60;;;0.50;;
10410;SDS011;5251;52.112;8.606;2024-02-23T00:55:32;0.80;;;0.50;;
10410;SDS011;5251;52.112;8.606;2024-02-23T00:57:57;1.17;;;0.50;;
10410;SDS011;5251;52.112;8.606;2024-02-23T01:00:24;0.40;;;0.40;;
10410;SDS011;5251;52.112;8.606;2024-02-23T01:02:50;0.70;;;0.40;;
10410;SDS011;5251;52.112;8.606;2024-02-23T01:05:17;0.43;;;0.43;;
10410;SDS011;5251;52.112;8.606;2024-02-23T01:07:42;0.70;;;0.55;;
10410;SDS011;5251;52.112;8.606;2024-02-23T01:10:08;0.30;;;0.30;;
10410;SDS011;5251;52.112;8.606;2024-02-23T01:12:34;0.75;;;0.30;;
10410;SDS011;5251;52.112;8.606;2024-02-23T01:15:00;0.25;;;0.25;;
10410;SDS011;5251;52.112;8.606;2024-02-23T01:17:26;0.40;;;0.40;;
10410;SDS011;5251;52.112;8.606;2024-02-23T01:19:52;0.43;;;0.43;;
10410;SDS011;5251;52.112;8.606;2024-02-23T01:22:17;0.40;;;0.40;;
10410;SDS011;5251;52.112;8.606;2024-02-23T01:24:43;0.30;;;0.30;;
10410;SDS011;5251;52.112;8.606;2024-02-23T01:27:08;0.65;;;0.50;;
10410;SDS011;5251;52.112;8.606;2024-02-23T01:29:34;0.55;;;0.40;;
10410;SDS011;5251;52.112;8.606;2024-02-23T01:32:00;0.47;;;0.40;;
10410;SDS011;5251;52.112;8.606;2024-02-23T01:34:25;0.57;;;0.57;;
10410;SDS011;5251;52.112;8.606;2024-02-23T01:36:51;0.52;;;0.50;;
10410;SDS011;5251;52.112;8.606;2024-02-23T01:39:16;1.15;;;0.50;;
10410;SDS011;5251;52.112;8.606;2024-02-23T01:41:42;0.50;;;0.50;;
10410;SDS011;5251;52.112;8.606;2024-02-23T01:44:09;0.43;;;0.40;;
10410;SDS011;5251;52.112;8.606;2024-02-23T01:46:35;0.70;;;0.45;;
10410;SDS011;5251;52.112;8.606;2024-02-23T01:49:01;0.52;;;0.52;;
10410;SDS011;5251;52.112;8.606;2024-02-23T01:51:29;0.40;;;0.40;;
10410;SDS011;5251;52.112;8.606;2024-02-23T01:53:55;1.17;;;0.60;;
10410;SDS011;5251;52.112;8.606;2024-02-23T01:56:20;0.55;;;0.55;;
10410;SDS011;5251;52.112;8.606;2024-02-23T01:58:46;0.65;;;0.60;;
10410;SDS011;5251;52.112;8.606;2024-02-23T02:01:12;2.30;;;0.63;;
10410;SDS011;5251;52.112;8.606;2024-02-23T02:03:38;0.75;;;0.70;;
10410;SDS011;5251;52.112;8.606;2024-02-23T02:06:05;1.42;;;0.70;;
10410;SDS011;5251;52.112;8.606;2024-02-23T02:08:32;0.85;;;0.80;;
10410;SDS011;5251;52.112;8.606;2024-02-23T02:10:58;1.13;;;0.80;;
10410;SDS011;5251;52.112;8.606;2024-02-23T02:13:24;0.82;;;0.80;;
10410;SDS011;5251;52.112;8.606;2024-02-23T02:15:50;4.03;;;1.05;;
10410;SDS011;5251;52.112;8.606;2024-02-23T02:18:15;2.50;;;1.20;;
10410;SDS011;5251;52.112;8.606;2024-02-23T02:20:52;2.22;;;1.08;;
10410;SDS011;5251;52.112;8.606;2024-02-23T02:23:19;1.05;;;0.95;;
10410;SDS011;5251;52.112;8.606;2024-02-23T02:25:45;3.25;;;1.13;;
10410;SDS011;5251;52.112;8.606;2024-02-23T02:28:16;1.50;;;1.00;;
10410;SDS011;5251;52.112;8.606;2024-02-23T02:30:42;0.98;;;0.90;;
10410;SDS011;5251;52.112;8.606;2024-02-23T02:33:08;1.48;;;1.02;;
10410;SDS011;5251;52.112;8.606;2024-02-23T02:35:33;1.17;;;1.08;;
10410;SDS011;5251;52.112;8.606;2024-02-23T02:37:59;1.90;;;1.25;;
10410;SDS011;5251;52.112;8.606;2024-02-23T02:40:25;1.25;;;1.15;;
10410;SDS011;5251;52.112;8.606;2024-02-23T02:42:50;1.30;;;1.20;;
10410;SDS011;5251;52.112;8.606;2024-02-23T02:45:16;2.25;;;1.30;;
10410;SDS011;5251;52.112;8.606;2024-02-23T02:47:42;1.42;;;1.30;;
10410;SDS011;5251;52.112;8.606;2024-02-23T02:50:08;2.05;;;1.25;;
10410;SDS011;5251;52.112;8.606;2024-02-23T02:52:34;1.50;;;1.27;;
10410;SDS011;5251;52.112;8.606;2024-02-23T02:54:59;1.50;;;1.40;;
10410;SDS011;5251;52.112;8.606;2024-02-23T02:57:25;1.60;;;1.50;;
10410;SDS011;5251;52.112;8.606;2024-02-23T02:59:51;1.48;;;1.38;;
10410;SDS011;5251;52.112;8.606;2024-02-23T03:02:17;2.15;;;1.77;;
10410;SDS011;5251;52.112;8.606;2024-02-23T03:04:49;2.00;;;1.70;;
10410;SDS011;5251;52.112;8.606;2024-02-23T03:07:15;2.25;;;1.67;;
10410;SDS011;5251;52.112;8.606;2024-02-23T03:09:41;2.50;;;1.65;;
10410;SDS011;5251;52.112;8.606;2024-02-23T03:12:07;2.28;;;1.70;;
10410;SDS011;5251;52.112;8.606;2024-02-23T03:14:33;3.28;;;1.90;;
10410;SDS011;5251;52.112;8.606;2024-02-23T03:16:59;1.92;;;1.60;;
10410;SDS011;5251;52.112;8.606;2024-02-23T03:19:25;3.72;;;2.00;;
10410;SDS011;5251;52.112;8.606;2024-02-23T03:21:51;2.42;;;1.75;;
10410;SDS011;5251;52.112;8.606;2024-02-23T03:24:16;2.22;;;1.42;;
10410;SDS011;5251;52.112;8.606;2024-02-23T03:26:42;3.05;;;1.48;;
10410;SDS011;5251;52.112;8.606;2024-02-23T03:29:09;2.72;;;1.40;;
10410;SDS011;5251;52.112;8.606;2024-02-23T03:31:34;3.22;;;1.58;;
10410;SDS011;5251;52.112;8.606;2024-02-23T03:34:00;3.13;;;1.70;;
10410;SDS011;5251;52.112;8.606;2024-02-23T03:36:27;3.28;;;1.58;;
10410;SDS011;5251;52.112;8.606;2024-02-23T03:38:52;2.72;;;1.15;;
10410;SDS011;5251;52.112;8.606;2024-02-23T03:41:18;2.15;;;1.33;;
10410;SDS011;5251;52.112;8.606;2024-02-23T03:43:43;2.45;;;1.27;;
10410;SDS011;5251;52.112;8.606;2024-02-23T03:46:09;3.05;;;1.40;;
10410;SDS011;5251;52.112;8.606;2024-02-23T03:48:36;2.65;;;1.30;;
10410;SDS011;5251;52.112;8.606;2024-02-23T03:51:05;2.22;;;1.30;;
10410;SDS011;5251;52.112;8.606;2024-02-23T03:53:31;3.20;;;1.70;;
10410;SDS011;5251;52.112;8.606;2024-02-23T03:55:58;3.10;;;1.52;;
10410;SDS011;5251;52.112;8.606;2024-02-23T03:58:23;2.45;;;1.40;;
10410;SDS011;5251;52.112;8.606;2024-02-23T04:00:49;1.92;;;1.40;;
10410;SDS011;5251;52.112;8.606;2024-02-23T04:03:15;1.63;;;1.20;;
10410;SDS011;5251;52.112;8.606;2024-02-23T04:05:40;4.18;;;1.67;;
10410;SDS011;5251;52.112;8.606;2024-02-23T04:08:06;2.03;;;1.40;;
10410;SDS011;5251;52.112;8.606;2024-02-23T04:10:31;2.97;;;1.30;;
10410;SDS011;5251;52.112;8.606;2024-02-23T04:12:57;1.88;;;1.25;;
10410;SDS011;5251;52.112;8.606;2024-02-23T04:15:23;1.25;;;1.15;;
10410;SDS011;5251;52.112;8.606;2024-02-23T04:17:49;2.67;;;1.17;;
10410;SDS011;5251;52.112;8.606;2024-02-23T04:20:14;2.65;;;1.20;;
10410;SDS011;5251;52.112;8.606;2024-02-23T04:22:40;2.70;;;1.20;;
10410;SDS011;5251;52.112;8.606;2024-02-23T04:25:05;4.43;;;1.40;;
10410;SDS011;5251;52.112;8.606;2024-02-23T04:27:31;2.20;;;1.25;;
10410;SDS011;5251;52.112;8.606;2024-02-23T04:29:57;3.63;;;1.15;;
10410;SDS011;5251;52.112;8.606;2024-02-23T04:32:23;2.33;;;1.20;;
10410;SDS011;5251;52.112;8.606;2024-02-23T04:34:48;3.00;;;1.30;;
10410;SDS011;5251;52.112;8.606;2024-02-23T04:37:14;3.83;;;1.55;;
10410;SDS011;5251;52.112;8.606;2024-02-23T04:39:40;1.48;;;1.00;;
10410;SDS011;5251;52.112;8.606;2024-02-23T04:42:07;2.53;;;1.20;;
10410;SDS011;5251;52.112;8.606;2024-02-23T04:44:34;2.63;;;1.23;;
10410;SDS011;5251;52.112;8.606;2024-02-23T04:47:00;3.80;;;1.30;;
10410;SDS011;5251;52.112;8.606;2024-02-23T04:49:25;3.85;;;0.98;;
10410;SDS011;5251;52.112;8.606;2024-02-23T04:51:51;3.60;;;1.27;;
10410;SDS011;5251;52.112;8.606;2024-02-23T04:54:17;2.95;;;1.02;;
10410;SDS011;5251;52.112;8.606;2024-02-23T04:56:42;4.57;;;1.00;;
10410;SDS011;5251;52.112;8.606;2024-02-23T04:59:08;8.40;;;1.55;;
10410;SDS011;5251;52.112;8.606;2024-02-23T05:01:37;5.70;;;1.20;;
10410;SDS011;5251;52.112;8.606;2024-02-23T05:04:03;3.08;;;1.20;;
10410;SDS011;5251;52.112;8.606;2024-02-23T05:06:29;2.38;;;1.10;;
10410;SDS011;5251;52.112;8.606;2024-02-23T05:08:55;2.55;;;1.20;;
10410;SDS011;5251;52.112;8.606;2024-02-23T05:11:20;3.42;;;1.00;;
10410;SDS011;5251;52.112;8.606;2024-02-23T05:13:46;1.70;;;0.90;;
10410;SDS011;5251;52.112;8.606;2024-02-23T05:16:13;3.90;;;1.67;;
10410;SDS011;5251;52.112;8.606;2024-02-23T05:18:39;2.90;;;1.02;;
10410;SDS011;5251;52.112;8.606;2024-02-23T05:21:06;4.78;;;1.30;;
10410;SDS011;5251;52.112;8.606;2024-02-23T05:23:32;2.78;;;1.08;;
10410;SDS011;5251;52.112;8.606;2024-02-23T05:25:57;3.78;;;1.30;;
10410;SDS011;5251;52.112;8.606;2024-02-23T05:28:23;2.88;;;1.17;;
10410;SDS011;5251;52.112;8.606;2024-02-23T05:30:49;3.95;;;1.30;;
10410;SDS011;5251;52.112;8.606;2024-02-23T05:33:14;1.92;;;1.02;;
10410;SDS011;5251;52.112;8.606;2024-02-23T05:35:40;2.60;;;1.08;;
10410;SDS011;5251;52.112;8.606;2024-02-23T05:38:06;3.50;;;1.38;;
10410;SDS011;5251;52.112;8.606;2024-02-23T05:40:31;3.42;;;1.20;;
10410;SDS011;5251;52.112;8.606;2024-02-23T05:43:01;2.75;;;1.00;;
10410;SDS011;5251;52.112;8.606;2024-02-23T05:45:26;1.70;;;1.00;;
10410;SDS011;5251;52.112;8.606;2024-02-23T05:47:52;3.10;;;1.15;;
10410;SDS011;5251;52.112;8.606;2024-02-23T05:50:17;3.65;;;1.33;;
10410;SDS011;5251;52.112;8.606;2024-02-23T05:52:43;2.95;;;1.23;;
10410;SDS011;5251;52.112;8.606;2024-02-23T05:55:09;5.35;;;1.60;;
10410;SDS011;5251;52.112;8.606;2024-02-23T05:57:34;3.05;;;1.20;;
10410;SDS011;5251;52.112;8.606;2024-02-23T06:00:00;5.15;;;1.30;;
10410;SDS011;5251;52.112;8.606;2024-02-23T06:02:26;2.90;;;1.30;;
10410;SDS011;5251;52.112;8.606;2024-02-23T06:04:51;5.60;;;1.90;;
10410;SDS011;5251;52.112;8.606;2024-02-23T06:07:17;5.50;;;1.52;;
10410;SDS011;5251;52.112;8.606;2024-02-23T06:09:43;2.08;;;1.23;;
10410;SDS011;5251;52.112;8.606;2024-02-23T06:12:09;3.30;;;1.40;;
10410;SDS011;5251;52.112;8.606;2024-02-23T06:14:35;3.28;;;1.40;;
10410;SDS011;5251;52.112;8.606;2024-02-23T06:17:01;4.35;;;1.75;;
10410;SDS011;5251;52.112;8.606;2024-02-23T06:19:27;2.45;;;1.48;;
10410;SDS011;5251;52.112;8.606;2024-02-23T06:21:53;2.42;;;1.33;;
10410;SDS011;5251;52.112;8.606;2024-02-23T06:24:19;2.10;;;1.17;;
10410;SDS011;5251;52.112;8.606;2024-02-23T06:26:45;2.95;;;1.63;;
10410;SDS011;5251;52.112;8.606;2024-02-23T06:29:11;2.05;;;1.15;;
10410;SDS011;5251;52.112;8.606;2024-02-23T06:31:38;2.70;;;1.30;;
10410;SDS011;5251;52.112;8.606;2024-02-23T06:34:05;1.42;;;1.10;;
10410;SDS011;5251;52.112;8.606;2024-02-23T06:36:30;2.72;;;1.38;;
10410;SDS011;5251;52.112;8.606;2024-02-23T06:38:56;2.50;;;1.23;;
10410;SDS011;5251;52.112;8.606;2024-02-23T06:41:22;2.40;;;1.15;;
10410;SDS011;5251;52.112;8.606;2024-02-23T06:43:48;2.38;;;1.20;;
10410;SDS011;5251;52.112;8.606;2024-02-23T06:46:13;6.00;;;1.92;;
10410;SDS011;5251;52.112;8.606;2024-02-23T06:48:39;3.03;;;1.25;;
10410;SDS011;5251;52.112;8.606;2024-02-23T06:51:05;2.78;;;1.10;;
10410;SDS011;5251;52.112;8.606;2024-02-23T06:53:34;5.88;;;1.60;;
10410;SDS011;5251;52.112;8.606;2024-02-23T06:56:00;3.30;;;1.20;;
10410;SDS011;5251;52.112;8.606;2024-02-23T06:58:27;2.42;;;1.20;;
10410;SDS011;5251;52.112;8.606;2024-02-23T07:00:53;1.63;;;1.00;;
10410;SDS011;5251;52.112;8.606;2024-02-23T07:03:19;4.47;;;1.13;;
10410;SDS011;5251;52.112;8.606;2024-02-23T07:05:44;3.13;;;0.93;;
10410;SDS011;5251;52.112;8.606;2024-02-23T07:08:11;3.15;;;1.05;;
10410;SDS011;5251;52.112;8.606;2024-02-23T07:10:37;3.08;;;1.10;;
10410;SDS011;5251;52.112;8.606;2024-02-23T07:13:02;2.17;;;1.20;;
10410;SDS011;5251;52.112;8.606;2024-02-23T07:15:28;2.47;;;1.05;;
10410;SDS011;5251;52.112;8.606;2024-02-23T07:17:55;2.53;;;1.25;;
10410;SDS011;5251;52.112;8.606;2024-02-23T07:20:21;1.38;;;0.88;;
10410;SDS011;5251;52.112;8.606;2024-02-23T07:22:47;4.35;;;1.13;;
10410;SDS011;5251;52.112;8.606;2024-02-23T07:25:19;3.22;;;1.52;;
10410;SDS011;5251;52.112;8.606;2024-02-23T07:27:45;1.73;;;1.13;;
10410;SDS011;5251;52.112;8.606;2024-02-23T07:30:14;3.45;;;1.30;;
10410;SDS011;5251;52.112;8.606;2024-02-23T07:32:40;2.05;;;1.30;;
10410;SDS011;5251;52.112;8.606;2024-02-23T07:35:06;1.75;;;0.95;;
10410;SDS011;5251;52.112;8.606;2024-02-23T07:37:31;3.20;;;1.25;;
10410;SDS011;5251;52.112;8.606;2024-02-23T07:39:57;4.07;;;1.30;;
10410;SDS011;5251;52.112;8.606;2024-02-23T07:42:23;2.92;;;1.05;;
10410;SDS011;5251;52.112;8.606;2024-02-23T07:44:49;3.08;;;1.38;;
10410;SDS011;5251;52.112;8.606;2024-02-23T07:47:14;7.03;;;1.67;;
10410;SDS011;5251;52.112;8.606;2024-02-23T07:49:40;3.88;;;1.40;;
10410;SDS011;5251;52.112;8.606;2024-02-23T07:52:06;3.90;;;1.48;;
10410;SDS011;5251;52.112;8.606;2024-02-23T07:54:32;2.67;;;1.20;;
10410;SDS011;5251;52.112;8.606;2024-02-23T07:56:58;3.88;;;1.13;;
10410;SDS011;5251;52.112;8.606;2024-02-23T07:59:24;2.72;;;1.17;;
10410;SDS011;5251;52.112;8.606;2024-02-23T08:01:49;3.17;;;1.42;;
10410;SDS011;5251;52.112;8.606;2024-02-23T08:04:15;1.90;;;1.15;;
10410;SDS011;5251;52.112;8.606;2024-02-23T08:06:41;2.80;;;1.10;;
10410;SDS011;5251;52.112;8.606;2024-02-23T08:09:07;2.97;;;1.15;;
10410;SDS011;5251;52.112;8.606;2024-02-23T08:11:33;3.28;;;1.08;;
10410;SDS011;5251;52.112;8.606;2024-02-23T08:13:59;3.17;;;1.00;;
10410;SDS011;5251;52.112;8.606;2024-02-23T08:16:25;2.80;;;1.00;;
10410;SDS011;5251;52.112;8.606;2024-02-23T08:18:51;1.60;;;0.80;;
10410;SDS011;5251;52.112;8.606;2024-02-23T08:21:16;2.65;;;1.17;;
10410;SDS011;5251;52.112;8.606;2024-02-23T08:23:42;3.35;;;1.35;;
10410;SDS011;5251;52.112;8.606;2024-02-23T08:26:09;6.15;;;1.20;;
10410;SDS011;5251;52.112;8.606;2024-02-23T08:28:35;2.92;;;1.20;;
10410;SDS011;5251;52.112;8.606;2024-02-23T08:31:01;2.58;;;1.55;;
10410;SDS011;5251;52.112;8.606;2024-02-23T08:33:26;4.18;;;1.10;;
10410;SDS011;5251;52.112;8.606;2024-02-23T08:35:52;2.67;;;1.10;;
10410;SDS011;5251;52.112;8.606;2024-02-23T08:38:17;2.10;;;1.10;;
10410;SDS011;5251;52.112;8.606;2024-02-23T08:40:43;4.25;;;1.80;;
10410;SDS011;5251;52.112;8.606;2024-02-23T08:43:10;3.05;;;1.10;;
10410;SDS011;5251;52.112;8.606;2024-02-23T08:45:36;3.88;;;1.10;;
10410;SDS011;5251;52.112;8.606;2024-02-23T08:48:01;2.58;;;0.95;;
10410;SDS011;5251;52.112;8.606;2024-02-23T08:50:28;4.88;;;1.25;;
10410;SDS011;5251;52.112;8.606;2024-02-23T08:52:54;2.42;;;1.00;;
10410;SDS011;5251;52.112;8.606;2024-02-23T08:55:20;1.35;;;0.70;;
10410;SDS011;5251;52.112;8.606;2024-02-23T08:57:46;1.73;;;0.95;;
10410;SDS011;5251;52.112;8.606;2024-02-23T09:00:12;3.90;;;1.08;;
10410;SDS011;5251;52.112;8.606;2024-02-23T09:02:39;1.85;;;0.88;;
10410;SDS011;5251;52.112;8.606;2024-02-23T09:05:07;4.97;;;1.02;;
10410;SDS011;5251;52.112;8.606;2024-02-23T09:07:33;2.83;;;0.90;;
10410;SDS011;5251;52.112;8.606;2024-02-23T09:09:59;3.38;;;1.27;;
10410;SDS011;5251;52.112;8.606;2024-02-23T09:12:25;2.45;;;1.13;;
10410;SDS011;5251;52.112;8.606;2024-02-23T09:14:51;2.60;;;1.10;;
10410;SDS011;5251;52.112;8.606;2024-02-23T09:17:16;3.53;;;1.10;;
10410;SDS011;5251;52.112;8.606;2024-02-23T09:19:44;2.13;;;1.02;;
10410;SDS011;5251;52.112;8.606;2024-02-23T09:22:10;1.52;;;0.80;;
10410;SDS011;5251;52.112;8.606;2024-02-23T09:24:38;3.55;;;1.10;;
10410;SDS011;5251;52.112;8.606;2024-02-23T09:27:05;1.67;;;0.70;;
10410;SDS011;5251;52.112;8.606;2024-02-23T09:29:32;2.55;;;1.00;;
10410;SDS011;5251;52.112;8.606;2024-02-23T09:31:58;1.95;;;0.60;;
10410;SDS011;5251;52.112;8.606;2024-02-23T09:34:23;1.38;;;0.70;;
10410;SDS011;5251;52.112;8.606;2024-02-23T09:36:50;6.15;;;1.00;;
10410;SDS011;5251;52.112;8.606;2024-02-23T09:39:15;2.05;;;0.85;;
10410;SDS011;5251;52.112;8.606;2024-02-23T09:41:41;3.08;;;1.02;;
10410;SDS011;5251;52.112;8.606;2024-02-23T09:44:08;3.88;;;1.45;;
10410;SDS011;5251;52.112;8.606;2024-02-23T09:46:36;2.45;;;0.93;;
10410;SDS011;5251;52.112;8.606;2024-02-23T09:49:02;1.92;;;0.80;;
10410;SDS011;5251;52.112;8.606;2024-02-23T09:51:28;2.92;;;1.00;;
10410;SDS011;5251;52.112;8.606;2024-02-23T09:53:55;3.03;;;1.10;;
10410;SDS011;5251;52.112;8.606;2024-02-23T09:56:22;2.55;;;1.23;;
10410;SDS011;5251;52.112;8.606;2024-02-23T09:58:51;3.13;;;1.08;;
10410;SDS011;5251;52.112;8.606;2024-02-23T10:01:21;5.15;;;1.08;;
10410;SDS011;5251;52.112;8.606;2024-02-23T10:03:56;1.50;;;0.88;;
10410;SDS011;5251;52.112;8.606;2024-02-23T10:06:23;3.38;;;1.05;;
10410;SDS011;5251;52.112;8.606;2024-02-23T10:08:52;2.78;;;0.90;;
10410;SDS011;5251;52.112;8.606;2024-02-23T10:11:21;3.50;;;1.30;;
10410;SDS011;5251;52.112;8.606;2024-02-23T10:13:48;3.00;;;0.98;;
10410;SDS011;5251;52.112;8.606;2024-02-23T10:16:17;3.15;;;1.10;;
10410;SDS011;5251;52.112;8.606;2024-02-23T10:18:45;1.70;;;0.80;;
10410;SDS011;5251;52.112;8.606;2024-02-23T10:21:13;4.47;;;1.02;;
10410;SDS011;5251;52.112;8.606;2024-02-23T10:23:39;2.88;;;0.80;;
10410;SDS011;5251;52.112;8.606;2024-02-23T10:26:05;2.58;;;0.80;;
10410;SDS011;5251;52.112;8.606;2024-02-23T10:28:32;2.00;;;0.98;;
10410;SDS011;5251;52.112;8.606;2024-02-23T10:30:57;4.20;;;0.98;;
10410;SDS011;5251;52.112;8.606;2024-02-23T10:33:26;1.42;;;0.98;;
10410;SDS011;5251;52.112;8.606;2024-02-23T10:35:56;1.83;;;0.93;;
10410;SDS011;5251;52.112;8.606;2024-02-23T10:38:23;3.15;;;0.98;;
10410;SDS011;5251;52.112;8.606;2024-02-23T10:40:50;1.83;;;1.02;;
10410;SDS011;5251;52.112;8.606;2024-02-23T10:43:20;1.98;;;0.90;;
10410;SDS011;5251;52.112;8.606;2024-02-23T10:45:59;3.50;;;1.10;;
10410;SDS011;5251;52.112;8.606;2024-02-23T10:48:27;2.97;;;0.90;;
10410;SDS011;5251;52.112;8.606;2024-02-23T10:50:55;3.63;;;1.00;;
10410;SDS011;5251;52.112;8.606;2024-02-23T10:53:22;1.73;;;0.70;;
10410;SDS011;5251;52.112;8.606;2024-02-23T10:55:50;3.22;;;1.13;;
10410;SDS011;5251;52.112;8.606;2024-02-23T10:58:21;1.75;;;1.00;;
10410;SDS011;5251;52.112;8.606;2024-02-23T11:00:47;1.80;;;0.93;;
10410;SDS011;5251;52.112;8.606;2024-02-23T11:03:13;2.05;;;0.70;;
10410;SDS011;5251;52.112;8.606;2024-02-23T11:05:40;2.10;;;0.80;;
10410;SDS011;5251;52.112;8.606;2024-02-23T11:08:06;3.35;;;0.75;;
10410;SDS011;5251;52.112;8.606;2024-02-23T11:10:40;3.92;;;1.30;;
10410;SDS011;5251;52.112;8.606;2024-02-23T11:13:17;2.72;;;1.10;;
10410;SDS011;5251;52.112;8.606;2024-02-23T11:15:42;4.38;;;0.93;;
10410;SDS011;5251;52.112;8.606;2024-02-23T11:18:27;2.83;;;0.73;;
10410;SDS011;5251;52.112;8.606;2024-02-23T11:20:58;2.78;;;1.40;;
10410;SDS011;5251;52.112;8.606;2024-02-23T11:23:24;2.70;;;1.10;;
10410;SDS011;5251;52.112;8.606;2024-02-23T11:28:48;1.98;;;0.80;;
10410;SDS011;5251;52.112;8.606;2024-02-23T11:31:15;1.27;;;0.63;;
10410;SDS011;5251;52.112;8.606;2024-02-23T11:33:47;2.10;;;1.13;;
10410;SDS011;5251;52.112;8.606;2024-02-23T11:36:24;1.50;;;0.90;;
10410;SDS011;5251;52.112;8.606;2024-02-23T11:39:00;2.00;;;1.08;;
10410;SDS011;5251;52.112;8.606;2024-02-23T11:41:27;1.98;;;0.85;;
10410;SDS011;5251;52.112;8.606;2024-02-23T11:43:54;3.33;;;1.20;;
10410;SDS011;5251;52.112;8.606;2024-02-23T11:46:21;2.65;;;0.70;;
10410;SDS011;5251;52.112;8.606;2024-02-23T11:48:47;4.15;;;1.20;;
10410;SDS011;5251;52.112;8.606;2024-02-23T11:51:18;2.47;;;0.98;;
10410;SDS011;5251;52.112;8.606;2024-02-23T11:53:45;2.60;;;1.13;;
10410;SDS011;5251;52.112;8.606;2024-02-23T11:56:12;2.72;;;0.90;;
10410;SDS011;5251;52.112;8.606;2024-02-23T11:58:39;3.40;;;1.10;;
10410;SDS011;5251;52.112;8.606;2024-02-23T12:01:05;3.08;;;1.10;;
10410;SDS011;5251;52.112;8.606;2024-02-23T12:03:32;1.77;;;1.40;;
10410;SDS011;5251;52.112;8.606;2024-02-23T12:05:58;2.88;;;1.30;;
10410;SDS011;5251;52.112;8.606;2024-02-23T12:08:27;3.17;;;1.23;;
10410;SDS011;5251;52.112;8.606;2024-02-23T12:11:02;2.67;;;1.40;;
10410;SDS011;5251;52.112;8.606;2024-02-23T12:13:29;1.67;;;1.10;;
10410;SDS011;5251;52.112;8.606;2024-02-23T12:15:55;2.55;;;1.20;;
10410;SDS011;5251;52.112;8.606;2024-02-23T12:18:21;3.58;;;1.30;;
10410;SDS011;5251;52.112;8.606;2024-02-23T12:21:04;2.20;;;1.13;;
10410;SDS011;5251;52.112;8.606;2024-02-23T12:23:41;2.63;;;1.10;;
10410;SDS011;5251;52.112;8.606;2024-02-23T12:26:08;1.55;;;0.80;;
10410;SDS011;5251;52.112;8.606;2024-02-23T12:28:34;1.95;;;0.80;;
10410;SDS011;5251;52.112;8.606;2024-02-23T12:31:00;1.60;;;0.98;;
10410;SDS011;5251;52.112;8.606;2024-02-23T12:33:29;1.40;;;0.80;;
10410;SDS011;5251;52.112;8.606;2024-02-23T12:35:58;2.17;;;0.77;;
10410;SDS011;5251;52.112;8.606;2024-02-23T12:38:24;1.27;;;0.63;;
10410;SDS011;5251;52.112;8.606;2024-02-23T12:40:50;2.88;;;1.10;;
10410;SDS011;5251;52.112;8.606;2024-02-23T12:43:16;2.33;;;0.90;;
10410;SDS011;5251;52.112;8.606;2024-02-23T12:45:43;2.00;;;0.82;;
10410;SDS011;5251;52.112;8.606;2024-02-23T12:48:14;2.30;;;1.00;;
10410;SDS011;5251;52.112;8.606;2024-02-23T12:50:40;2.65;;;0.90;;
10410;SDS011;5251;52.112;8.606;2024-02-23T12:53:07;1.38;;;0.88;;
10410;SDS011;5251;52.112;8.606;2024-02-23T12:55:33;1.77;;;0.70;;
10410;SDS011;5251;52.112;8.606;2024-02-23T12:58:01;1.60;;;0.90;;
10410;SDS011;5251;52.112;8.606;2024-02-23T13:00:27;2.10;;;0.70;;
10410;SDS011;5251;52.112;8.606;2024-02-23T13:02:53;2.72;;;0.90;;
10410;SDS011;5251;52.112;8.606;2024-02-23T13:05:19;2.05;;;0.68;;
10410;SDS011;5251;52.112;8.606;2024-02-23T13:07:45;1.20;;;0.80;;
10410;SDS011;5251;52.112;8.606;2024-02-23T13:10:11;2.03;;;0.95;;
10410;SDS011;5251;52.112;8.606;2024-02-23T13:12:36;4.55;;;0.82;;
10410;SDS011;5251;52.112;8.606;2024-02-23T13:15:02;1.80;;;0.70;;
10410;SDS011;5251;52.112;8.606;2024-02-23T13:17:28;2.38;;;0.93;;
10410;SDS011;5251;52.112;8.606;2024-02-23T13:19:53;2.83;;;1.00;;
10410;SDS011;5251;52.112;8.606;2024-02-23T13:22:19;1.75;;;0.98;;
10410;SDS011;5251;52.112;8.606;2024-02-23T13:24:45;2.53;;;1.10;;
10410;SDS011;5251;52.112;8.606;2024-02-23T13:27:10;2.55;;;0.77;;
10410;SDS011;5251;52.112;8.606;2024-02-23T13:29:36;1.30;;;0.70;;
10410;SDS011;5251;52.112;8.606;2024-02-23T13:32:02;3.42;;;0.90;;
10410;SDS011;5251;52.112;8.606;2024-02-23T13:34:27;1.73;;;1.15;;
10410;SDS011;5251;52.112;8.606;2024-02-23T13:36:53;1.38;;;0.95;;
10410;SDS011;5251;52.112;8.606;2024-02-23T13:39:19;1.27;;;0.73;;
10410;SDS011;5251;52.112;8.606;2024-02-23T13:41:44;1.58;;;1.00;;
10410;SDS011;5251;52.112;8.606;2024-02-23T13:44:10;1.13;;;0.60;;
10410;SDS011;5251;52.112;8.606;2024-02-23T13:46:38;2.17;;;0.85;;
10410;SDS011;5251;52.112;8.606;2024-02-23T13:49:05;2.03;;;0.82;;
10410;SDS011;5251;52.112;8.606;2024-02-23T13:51:32;1.45;;;0.95;;
10410;SDS011;5251;52.112;8.606;2024-02-23T13:53:58;1.33;;;0.65;;
10410;SDS011;5251;52.112;8.606;2024-02-23T13:56:24;1.95;;;0.70;;
10410;SDS011;5251;52.112;8.606;2024-02-23T13:58:50;2.08;;;0.90;;
10410;SDS011;5251;52.112;8.606;2024-02-23T14:01:15;1.52;;;0.75;;
10410;SDS011;5251;52.112;8.606;2024-02-23T14:03:41;6.03;;;1.55;;
10410;SDS011;5251;52.112;8.606;2024-02-23T14:06:08;3.72;;;1.33;;
10410;SDS011;5251;52.112;8.606;2024-02-23T14:08:34;2.03;;;1.00;;
10410;SDS011;5251;52.112;8.606;2024-02-23T14:11:02;2.85;;;0.85;;
10410;SDS011;5251;52.112;8.606;2024-02-23T14:13:30;1.40;;;0.85;;
10410;SDS011;5251;52.112;8.606;2024-02-23T14:15:57;1.95;;;0.88;;
10410;SDS011;5251;52.112;8.606;2024-02-23T14:18:23;2.63;;;1.25;;
10410;SDS011;5251;52.112;8.606;2024-02-23T14:20:48;4.00;;;1.77;;
10410;SDS011;5251;52.112;8.606;2024-02-23T14:23:14;2.72;;;1.27;;
10410;SDS011;5251;52.112;8.606;2024-02-23T14:25:40;2.88;;;1.25;;
10410;SDS011;5251;52.112;8.606;2024-02-23T14:28:05;5.15;;;0.90;;
10410;SDS011;5251;52.112;8.606;2024-02-23T14:30:31;1.30;;;0.82;;
10410;SDS011;5251;52.112;8.606;2024-02-23T14:32:57;3.08;;;0.90;;
10410;SDS011;5251;52.112;8.606;2024-02-23T14:35:22;1.27;;;0.75;;
10410;SDS011;5251;52.112;8.606;2024-02-23T14:37:48;3.05;;;0.85;;
10410;SDS011;5251;52.112;8.606;2024-02-23T14:40:14;3.67;;;1.40;;
10410;SDS011;5251;52.112;8.606;2024-02-23T14:42:40;1.30;;;0.88;;
10410;SDS011;5251;52.112;8.606;2024-02-23T14:45:06;2.40;;;1.00;;
10410;SDS011;5251;52.112;8.606;2024-02-23T14:47:32;2.20;;;1.05;;
10410;SDS011;5251;52.112;8.606;2024-02-23T14:49:59;1.90;;;1.23;;
10410;SDS011;5251;52.112;8.606;2024-02-23T14:52:24;2.25;;;1.10;;
10410;SDS011;5251;52.112;8.606;2024-02-23T14:54:50;1.85;;;1.17;;
10410;SDS011;5251;52.112;8.606;2024-02-23T14:57:16;3.00;;;1.02;;
10410;SDS011;5251;52.112;8.606;2024-02-23T14:59:41;1.90;;;1.00;;